Aérodrome :
LOGIN :

S'inscrire | Disclaimer

   EN    FR    IT 

 










Légende :    VFR   VFR Marginal   IFR   IFR Intensif   IFR Très Intensif
Visi : 
Plafond : 
>= 8 km
>= 3000ft
5 à 8 km
1000 à 3000 ft
1500m à 5 km
500 à 1000 ft
800 à 1500m
200 à 500 ft
< 800m
< 200 ft
Symboles :   Orages  Brouillard  Fortes neiges  Fortes précipitations  Vent > 20 kt
SIGMETs :   Divers  Orages  Givrage  Turbulence  Onde Orograph.  Cendres Volcan.







- Altitude de l'aérodrome : 257 ft
- Code IATA : MAN
- Voir les cartes d'approche


EGCC - Manchester

DERNIER METAR :
  • 222020Z AUTO 17005KT 100V230 9999 BKN027 14/11 Q1018

METARs EXPIRÉS :
  • 221950Z AUTO 17006KT 100V220 9999 BKN027 14/11 Q1018 TEMPO BKN010
  • 221920Z AUTO 16005KT 090V230 9999 BKN031 BKN044 14/11 Q1018 TEMPO BKN010
  • 221850Z AUTO 18006KT 130V210 9999 -RA SCT032 BKN046 14/11 Q1017 TEMPO BKN010
  • 221820Z AUTO 18007KT 130V220 9999 SCT035 BKN046 14/11 Q1017
  • 221750Z AUTO 17012KT 9999 -RA FEW019 SCT029 BKN044 14/11 Q1017

TAF AMD TAF EGCC
Valide du 22 à 18h jusqu'au 24 à 00h UTC


221800Z 2218/2324 17009KT 9999 FEW045
TEMPO 2218/2312 6000 -RADZ BKN010
PROB30
TEMPO 2222/2309 3000 BR BKN004
PROB30
TEMPO 2312/2316 BKN012
ATIS : +44 161 499 2324
Pas de NOTAMs connus pour ce terrain.



MET'MAP, la Météo Aéronautique d'un coup d'oeil ! - Copyright ORBIFLY Décembre 2007 - Disclaimer

ORBIFLY MET'MAP TEAM :

Programmation & Développement : Alexandra Zaïnal
Conception & Développement : Baudouin d'Aumeries
Co-Programmation & Développement : Marc-Olivier Méhu
Soutien technique & logistique : Manuel Goepfert

Contact : metmap@orbifly.com




SOURCES & CREDITS :

   NOAA